createdAt,value
2022-09-14T00:01:27.361Z,100.00
2022-09-14T00:03:56.789Z,100.00
2022-09-14T00:06:25.199Z,100.00
2022-09-14T00:08:54.062Z,100.00
2022-09-14T00:11:24.911Z,100.00
2022-09-14T00:13:54.169Z,100.00
2022-09-14T00:16:24.032Z,100.00
2022-09-14T00:18:52.961Z,100.00
2022-09-14T00:21:20.746Z,100.00
2022-09-14T00:23:48.774Z,100.00
2022-09-14T00:26:18.561Z,100.00
2022-09-14T00:28:49.547Z,100.00
2022-09-14T00:31:18.013Z,100.00
2022-09-14T00:33:48.126Z,100.00
2022-09-14T00:36:17.502Z,100.00
2022-09-14T00:38:47.110Z,100.00
2022-09-14T00:41:16.650Z,100.00
2022-09-14T00:43:57.611Z,100.00
2022-09-14T00:46:26.866Z,100.00
2022-09-14T00:48:55.449Z,100.00
2022-09-14T00:51:23.493Z,100.00
2022-09-14T00:53:51.663Z,100.00
2022-09-14T00:56:19.533Z,100.00
2022-09-14T00:58:50.538Z,100.00
2022-09-14T01:01:20.657Z,100.00
2022-09-14T01:03:48.614Z,100.00
2022-09-14T01:06:26.177Z,100.00
2022-09-14T01:09:09.094Z,100.00
2022-09-14T01:12:10.991Z,100.00
2022-09-14T01:14:46.093Z,100.00
2022-09-14T01:17:26.966Z,100.00
2022-09-14T01:20:17.253Z,100.00
2022-09-14T01:22:52.273Z,100.00
2022-09-14T01:25:38.758Z,100.00
2022-09-14T01:28:14.669Z,100.00
2022-09-14T01:30:45.054Z,100.00
2022-09-14T01:33:18.424Z,100.00
2022-09-14T01:35:52.209Z,100.00
2022-09-14T01:38:25.487Z,100.00
2022-09-14T01:40:53.531Z,100.00
2022-09-14T01:43:27.647Z,100.00
2022-09-14T01:45:57.850Z,100.00
2022-09-14T01:48:32.193Z,100.00
2022-09-14T01:51:04.454Z,100.00
2022-09-14T01:53:37.684Z,100.00
2022-09-14T01:56:11.510Z,100.00
2022-09-14T01:58:45.879Z,100.00
2022-09-14T02:01:19.933Z,100.00
2022-09-14T02:03:51.258Z,100.00
2022-09-14T02:06:27.015Z,100.00
2022-09-14T02:08:55.153Z,100.00
2022-09-14T02:11:22.795Z,100.00
2022-09-14T02:13:51.794Z,100.00
2022-09-14T02:16:20.102Z,100.00
2022-09-14T02:18:47.734Z,100.00
2022-09-14T02:21:18.435Z,100.00
2022-09-14T02:23:47.979Z,100.00
2022-09-14T02:26:16.986Z,100.00
2022-09-14T02:28:44.617Z,100.00
2022-09-14T02:31:24.205Z,100.00
2022-09-14T02:34:01.614Z,100.00
2022-09-14T02:36:37.049Z,100.00
2022-09-14T02:39:12.577Z,100.00
2022-09-14T02:41:46.670Z,100.00
2022-09-14T02:44:31.979Z,100.00
2022-09-14T02:47:05.196Z,100.00
2022-09-14T02:49:45.048Z,100.00
2022-09-14T02:52:17.582Z,100.00
2022-09-14T02:54:52.461Z,100.00
2022-09-14T02:57:20.051Z,100.00
2022-09-14T02:59:47.606Z,100.00
2022-09-14T03:02:16.651Z,100.00
2022-09-14T03:04:44.277Z,100.00
2022-09-14T03:07:11.938Z,100.00
2022-09-14T03:09:40.001Z,100.00
2022-09-14T03:12:07.593Z,100.00
2022-09-14T03:14:35.132Z,100.00
2022-09-14T03:17:02.687Z,100.00
2022-09-14T03:19:31.598Z,100.00
2022-09-14T03:21:59.557Z,100.00
2022-09-14T03:24:27.070Z,100.00
2022-09-14T03:26:54.598Z,100.00
2022-09-14T03:29:22.308Z,100.00
2022-09-14T03:31:49.872Z,100.00
2022-09-14T03:34:17.658Z,100.00
2022-09-14T03:36:46.559Z,100.00
2022-09-14T03:39:14.357Z,100.00
2022-09-14T03:41:41.889Z,100.00
2022-09-14T03:44:10.775Z,100.00
2022-09-14T03:46:38.517Z,100.00
2022-09-14T03:49:06.779Z,100.00
2022-09-14T03:51:34.735Z,100.00
2022-09-14T03:54:03.841Z,100.00
2022-09-14T03:56:31.740Z,100.00
2022-09-14T03:58:59.302Z,100.00
2022-09-14T04:01:26.881Z,100.00
2022-09-14T04:03:54.459Z,100.00
2022-09-14T04:06:22.150Z,100.00
2022-09-14T04:08:49.727Z,100.00
2022-09-14T04:11:20.554Z,100.00
2022-09-14T04:13:49.219Z,100.00
2022-09-14T04:16:17.985Z,100.00
2022-09-14T04:18:45.792Z,100.00
2022-09-14T04:21:15.349Z,100.00
2022-09-14T04:24:03.386Z,100.00
2022-09-14T04:26:32.845Z,100.00
2022-09-14T04:29:01.050Z,100.00
2022-09-14T04:31:28.685Z,100.00
2022-09-14T04:33:57.326Z,100.00
2022-09-14T04:36:28.371Z,100.00
2022-09-14T04:38:58.155Z,100.00
2022-09-14T04:41:26.531Z,100.00
2022-09-14T04:43:56.474Z,100.00
2022-09-14T04:46:26.104Z,100.00
2022-09-14T04:48:53.825Z,100.00
2022-09-14T04:51:23.550Z,100.00
2022-09-14T04:53:53.129Z,100.00
2022-09-14T04:56:22.320Z,100.00
2022-09-14T04:58:52.010Z,100.00
2022-09-14T05:01:25.192Z,100.00
2022-09-14T05:03:53.184Z,100.00
2022-09-14T05:06:22.642Z,100.00
2022-09-14T05:08:51.229Z,100.00
2022-09-14T05:11:20.722Z,100.00
2022-09-14T05:13:50.159Z,100.00
2022-09-14T05:16:19.691Z,100.00
2022-09-14T05:18:49.362Z,100.00
2022-09-14T05:21:18.986Z,100.00
2022-09-14T05:23:46.896Z,100.00
2022-09-14T05:26:15.683Z,100.00
2022-09-14T05:28:43.217Z,100.00
2022-09-14T05:31:13.021Z,100.00
2022-09-14T05:33:40.790Z,100.00
2022-09-14T05:36:10.461Z,100.00
2022-09-14T05:38:40.698Z,100.00
2022-09-14T05:41:11.058Z,100.00
2022-09-14T05:43:38.602Z,100.00
2022-09-14T05:46:08.073Z,100.00
2022-09-14T05:48:36.993Z,100.00
2022-09-14T05:51:07.263Z,100.00
2022-09-14T05:53:36.566Z,100.00
2022-09-14T05:56:06.475Z,100.00
2022-09-14T05:58:35.671Z,100.00
2022-09-14T06:01:08.250Z,100.00
2022-09-14T06:03:36.223Z,99.29
2022-09-14T06:06:04.547Z,99.54
2022-09-14T06:08:32.305Z,97.84
2022-09-14T06:11:05.465Z,97.18
2022-09-14T06:13:33.081Z,96.32
2022-09-14T06:16:03.543Z,95.28
2022-09-14T06:18:32.587Z,91.85
2022-09-14T06:21:00.442Z,93.11
2022-09-14T06:23:28.547Z,91.90
2022-09-14T06:25:56.851Z,92.28
2022-09-14T06:28:27.131Z,89.45
2022-09-14T06:30:54.833Z,89.13
2022-09-14T06:33:22.626Z,84.59
2022-09-14T06:35:57.151Z,86.95
2022-09-14T06:38:25.072Z,85.53
2022-09-14T06:40:54.054Z,81.18
2022-09-14T06:43:21.621Z,81.62
2022-09-14T06:46:02.169Z,82.10
2022-09-14T06:48:31.308Z,80.93
2022-09-14T06:50:58.984Z,79.67
2022-09-14T06:53:26.586Z,80.08
2022-09-14T06:55:54.184Z,76.87
2022-09-14T06:58:21.726Z,79.58
2022-09-14T07:00:49.626Z,75.65
2022-09-14T07:03:19.049Z,73.44
2022-09-14T07:05:46.750Z,70.66
2022-09-14T07:08:14.282Z,73.68
2022-09-14T07:10:43.046Z,70.65
2022-09-14T07:13:10.598Z,64.55
2022-09-14T07:15:38.478Z,66.45
2022-09-14T07:18:06.091Z,63.58
2022-09-14T07:20:35.737Z,62.94
2022-09-14T07:23:03.246Z,59.97
2022-09-14T07:25:30.782Z,60.28
2022-09-14T07:28:00.573Z,62.14
2022-09-14T07:30:28.434Z,60.67
2022-09-14T07:32:56.365Z,62.68
2022-09-14T07:35:23.983Z,64.65
2022-09-14T07:37:52.901Z,66.61
2022-09-14T07:40:22.758Z,69.11
2022-09-14T07:42:55.546Z,70.47
2022-09-14T07:45:25.122Z,70.76
2022-09-14T07:47:52.669Z,72.46
2022-09-14T07:50:20.671Z,72.18
2022-09-14T07:52:50.669Z,71.86
2022-09-14T07:55:19.908Z,70.73
2022-09-14T07:57:56.162Z,70.54
2022-09-14T08:00:25.182Z,70.50
2022-09-14T08:02:53.743Z,71.63
2022-09-14T08:05:21.553Z,70.95
2022-09-14T08:07:49.441Z,70.29
2022-09-14T08:10:17.030Z,70.03
2022-09-14T08:12:45.918Z,70.09
2022-09-14T08:15:13.450Z,69.75
2022-09-14T08:17:41.103Z,67.29
2022-09-14T08:20:09.189Z,66.43
2022-09-14T08:22:36.737Z,65.46
2022-09-14T08:25:04.738Z,63.49
2022-09-14T08:27:32.602Z,62.51
2022-09-14T08:30:01.493Z,61.09
2022-09-14T08:32:29.643Z,59.01
2022-09-14T08:34:57.219Z,61.40
2022-09-14T08:37:24.766Z,60.40
2022-09-14T08:39:53.320Z,59.47
2022-09-14T08:42:24.988Z,60.68
2022-09-14T08:44:57.358Z,63.27
2022-09-14T08:47:29.054Z,64.35
2022-09-14T08:50:01.985Z,65.81
2022-09-14T08:52:34.095Z,67.97
2022-09-14T08:55:03.407Z,67.54
2022-09-14T08:57:41.914Z,67.05
2022-09-14T09:00:13.373Z,67.08
2022-09-14T09:02:57.953Z,67.68
2022-09-14T09:05:36.610Z,62.16
2022-09-14T09:08:14.093Z,61.79
2022-09-14T09:10:42.134Z,62.96
2022-09-14T09:13:14.542Z,61.99
2022-09-14T09:15:47.010Z,60.58
2022-09-14T09:18:20.627Z,62.37
2022-09-14T09:20:52.398Z,64.17
2022-09-14T09:23:22.170Z,63.64
2022-09-14T09:25:58.549Z,61.69
2022-09-14T09:28:28.431Z,57.70
2022-09-14T09:30:58.835Z,54.85
2022-09-14T09:33:28.985Z,56.30
2022-09-14T09:35:56.954Z,55.26
2022-09-14T09:38:26.549Z,56.27
2022-09-14T09:40:57.533Z,55.66
2022-09-14T09:43:47.899Z,58.20
2022-09-14T09:46:13.335Z,58.99
2022-09-14T09:48:44.609Z,59.45
2022-09-14T09:51:14.759Z,59.86
2022-09-14T09:53:49.374Z,60.75
2022-09-14T09:56:22.171Z,62.47
2022-09-14T09:58:52.032Z,64.46
2022-09-14T10:01:23.170Z,64.41
2022-09-14T10:04:04.617Z,64.51
2022-09-14T10:06:32.914Z,64.91
2022-09-14T10:09:00.634Z,64.91
2022-09-14T10:11:31.902Z,65.95
2022-09-14T10:13:59.984Z,62.69
2022-09-14T10:16:34.573Z,63.61
2022-09-14T10:19:04.335Z,63.60
2022-09-14T10:21:32.312Z,62.62
2022-09-14T10:24:16.839Z,61.73
2022-09-14T10:26:44.420Z,62.12
2022-09-14T10:29:36.352Z,60.14
2022-09-14T10:32:15.786Z,59.28
2022-09-14T10:34:44.776Z,58.70
2022-09-14T10:37:32.033Z,59.12
2022-09-14T10:40:14.231Z,57.82
2022-09-14T10:42:49.807Z,57.06
2022-09-14T10:45:20.153Z,57.93
2022-09-14T10:48:16.454Z,58.34
2022-09-14T10:50:55.565Z,62.67
2022-09-14T10:53:40.842Z,62.11
2022-09-14T10:56:16.906Z,62.98
2022-09-14T10:59:07.945Z,63.68
2022-09-14T11:01:54.867Z,61.76
2022-09-14T11:04:42.978Z,62.98
2022-09-14T11:07:22.437Z,61.89
2022-09-14T11:09:58.018Z,60.50
2022-09-14T11:12:35.153Z,58.00
2022-09-14T11:15:16.245Z,57.50
2022-09-14T11:17:58.562Z,58.60
2022-09-14T11:20:32.830Z,57.35
2022-09-14T11:23:14.885Z,57.92
2022-09-14T11:25:48.233Z,61.56
2022-09-14T11:28:20.263Z,58.73
2022-09-14T11:30:54.077Z,60.24
2022-09-14T11:33:30.883Z,57.86
2022-09-14T11:36:02.682Z,57.40
2022-09-14T11:38:37.142Z,60.25
2022-09-14T11:41:14.295Z,58.96
2022-09-14T11:43:47.170Z,60.17
2022-09-14T11:46:19.657Z,62.52
2022-09-14T11:48:57.754Z,62.27
2022-09-14T11:51:33.322Z,62.70
2022-09-14T11:54:02.285Z,62.72
2022-09-14T11:56:32.517Z,63.81
2022-09-14T11:59:03.974Z,63.52
2022-09-14T12:01:36.475Z,64.12
2022-09-14T12:04:16.386Z,66.03
2022-09-14T12:06:55.097Z,64.27
2022-09-14T12:09:41.298Z,64.87
2022-09-14T12:12:34.557Z,64.02
2022-09-14T12:15:03.937Z,61.94
2022-09-14T12:17:39.939Z,63.22
2022-09-14T12:20:43.293Z,64.48
2022-09-14T12:23:23.380Z,66.11
2022-09-14T12:25:59.636Z,67.28
2022-09-14T12:28:38.309Z,68.73
2022-09-14T12:31:47.842Z,69.67
2022-09-14T12:34:19.914Z,75.85
2022-09-14T12:37:00.085Z,78.70
2022-09-14T12:39:30.405Z,80.78
2022-09-14T12:42:06.539Z,80.59
2022-09-14T12:44:39.705Z,81.93
2022-09-14T12:47:55.468Z,82.75
2022-09-14T12:50:23.387Z,83.18
2022-09-14T12:53:22.402Z,82.66
2022-09-14T12:55:57.485Z,82.24
2022-09-14T12:58:37.739Z,81.53
2022-09-14T13:01:22.558Z,79.64
2022-09-14T13:03:52.654Z,76.71
2022-09-14T13:06:22.346Z,77.14
2022-09-14T13:08:53.565Z,75.82
2022-09-14T13:11:24.465Z,74.91
2022-09-14T13:13:53.774Z,73.94
2022-09-14T13:16:39.265Z,73.53
2022-09-14T13:19:19.696Z,76.61
2022-09-14T13:21:49.352Z,78.36
2022-09-14T13:24:21.574Z,78.02
2022-09-14T13:26:49.638Z,76.53
2022-09-14T13:29:19.125Z,76.74
2022-09-14T13:31:46.698Z,74.30
2022-09-14T13:34:21.909Z,71.65
2022-09-14T13:36:50.293Z,70.86
2022-09-14T13:39:25.355Z,72.30
2022-09-14T13:41:53.323Z,69.49
2022-09-14T13:44:25.934Z,68.39
2022-09-14T13:46:53.850Z,67.00
2022-09-14T13:49:21.569Z,68.51
2022-09-14T13:51:49.225Z,67.21
2022-09-14T13:54:19.963Z,66.58
2022-09-14T13:56:47.621Z,64.73
2022-09-14T13:59:18.131Z,65.08
2022-09-14T14:01:55.319Z,64.73
2022-09-14T14:04:28.542Z,64.30
2022-09-14T14:07:18.980Z,64.22
2022-09-14T14:09:50.775Z,64.58
2022-09-14T14:12:27.005Z,63.54
2022-09-14T14:14:56.866Z,63.40
2022-09-14T14:17:35.312Z,63.12
2022-09-14T14:20:28.889Z,62.51
2022-09-14T14:22:58.164Z,63.01
2022-09-14T14:25:31.222Z,63.83
2022-09-14T14:28:01.774Z,65.33
2022-09-14T14:30:31.061Z,66.50
2022-09-14T14:33:01.332Z,68.35
2022-09-14T14:35:30.998Z,71.74
2022-09-14T14:37:59.499Z,72.07
2022-09-14T14:40:28.234Z,71.43
2022-09-14T14:42:58.306Z,71.49
2022-09-14T14:45:27.767Z,72.25
2022-09-14T14:47:56.550Z,71.75
2022-09-14T14:50:27.468Z,69.61
2022-09-14T14:52:55.435Z,70.55
2022-09-14T14:55:24.210Z,71.89
2022-09-14T14:57:52.676Z,71.13
2022-09-14T15:00:22.323Z,70.43
2022-09-14T15:02:50.328Z,70.39
2022-09-14T15:05:18.827Z,71.02
2022-09-14T15:07:49.739Z,71.96
2022-09-14T15:10:18.200Z,72.43
2022-09-14T15:12:46.312Z,72.46
2022-09-14T15:15:15.312Z,72.56
2022-09-14T15:17:43.255Z,73.87
2022-09-14T15:20:11.349Z,75.07
2022-09-14T15:22:39.161Z,80.49
2022-09-14T15:25:09.395Z,84.00
2022-09-14T15:27:36.973Z,86.57
2022-09-14T15:30:05.573Z,88.72
2022-09-14T15:32:33.096Z,91.81
2022-09-14T15:35:00.624Z,92.53
2022-09-14T15:37:28.219Z,93.12
2022-09-14T15:39:55.787Z,93.85
2022-09-14T15:42:25.261Z,92.94
2022-09-14T15:44:52.797Z,92.58
2022-09-14T15:47:20.338Z,93.34
2022-09-14T15:49:51.581Z,94.33
2022-09-14T15:52:19.173Z,94.70
2022-09-14T15:54:46.694Z,95.80
2022-09-14T15:57:14.402Z,95.77
2022-09-14T15:59:43.338Z,95.24
2022-09-14T16:02:12.033Z,95.70
2022-09-14T16:04:40.353Z,96.30
2022-09-14T16:07:10.552Z,95.99
2022-09-14T16:09:39.559Z,96.44
2022-09-14T16:12:08.126Z,95.74
2022-09-14T16:14:35.753Z,95.20
2022-09-14T16:17:05.603Z,95.69
2022-09-14T16:19:33.214Z,95.93
2022-09-14T16:22:01.366Z,95.01
2022-09-14T16:24:29.337Z,95.75
2022-09-14T16:26:57.828Z,95.49
2022-09-14T16:29:26.405Z,95.58
2022-09-14T16:31:54.759Z,95.53
2022-09-14T16:34:28.000Z,96.06
2022-09-14T16:36:58.447Z,96.55
2022-09-14T16:39:28.467Z,96.84
2022-09-14T16:41:57.220Z,98.49
2022-09-14T16:44:27.714Z,98.79
2022-09-14T16:46:57.574Z,99.83
2022-09-14T16:49:28.291Z,100.00
2022-09-14T16:51:56.153Z,100.00
2022-09-14T16:54:25.738Z,100.00
2022-09-14T16:56:56.000Z,100.00
2022-09-14T16:59:23.867Z,100.00
2022-09-14T17:01:54.665Z,100.00
2022-09-14T17:04:23.807Z,100.00
2022-09-14T17:06:55.015Z,100.00
2022-09-14T17:09:25.158Z,100.00
2022-09-14T17:11:53.968Z,100.00
2022-09-14T17:14:23.549Z,100.00
2022-09-14T17:16:51.320Z,100.00
2022-09-14T17:19:19.012Z,100.00
2022-09-14T17:21:48.042Z,100.00
2022-09-14T17:24:20.127Z,100.00
2022-09-14T17:26:48.187Z,100.00
2022-09-14T17:29:16.193Z,100.00
2022-09-14T17:31:45.441Z,100.00
2022-09-14T17:34:16.834Z,100.00
2022-09-14T17:36:44.597Z,100.00
2022-09-14T17:39:12.804Z,100.00
2022-09-14T17:41:42.985Z,100.00
2022-09-14T17:44:12.639Z,100.00
2022-09-14T17:46:50.834Z,100.00
2022-09-14T17:49:20.617Z,100.00
2022-09-14T17:51:48.168Z,100.00
2022-09-14T17:54:15.709Z,100.00
2022-09-14T17:56:44.853Z,100.00
2022-09-14T17:59:14.782Z,100.00
2022-09-14T18:01:42.323Z,100.00
2022-09-14T18:04:13.106Z,100.00
2022-09-14T18:06:42.478Z,100.00
2022-09-14T18:09:13.233Z,100.00
2022-09-14T18:11:41.215Z,100.00
2022-09-14T18:14:12.600Z,100.00
2022-09-14T18:16:41.072Z,100.00
2022-09-14T18:19:08.822Z,100.00
2022-09-14T18:21:36.371Z,100.00
2022-09-14T18:24:04.433Z,100.00
2022-09-14T18:26:31.961Z,100.00
2022-09-14T18:28:59.538Z,100.00
2022-09-14T18:31:28.547Z,100.00
2022-09-14T18:33:59.086Z,100.00
2022-09-14T18:36:29.260Z,100.00
2022-09-14T18:38:57.611Z,100.00
2022-09-14T18:41:25.241Z,100.00
2022-09-14T18:43:54.045Z,100.00
2022-09-14T18:46:27.135Z,100.00
2022-09-14T18:48:58.326Z,100.00
2022-09-14T18:51:26.429Z,100.00
2022-09-14T18:53:58.029Z,100.00
2022-09-14T18:56:25.620Z,100.00
2022-09-14T18:58:53.193Z,100.00
2022-09-14T19:01:21.204Z,100.00
2022-09-14T19:03:49.117Z,100.00
2022-09-14T19:06:19.617Z,100.00
2022-09-14T19:08:47.690Z,100.00
2022-09-14T19:11:17.739Z,100.00
2022-09-14T19:13:46.019Z,100.00
2022-09-14T19:16:15.219Z,100.00
2022-09-14T19:18:43.694Z,100.00
2022-09-14T19:21:13.050Z,100.00
2022-09-14T19:23:42.968Z,100.00
2022-09-14T19:26:12.823Z,100.00
2022-09-14T19:28:40.418Z,100.00
2022-09-14T19:31:09.472Z,100.00
2022-09-14T19:33:39.234Z,100.00
2022-09-14T19:36:11.878Z,100.00
2022-09-14T19:38:39.995Z,100.00
2022-09-14T19:41:09.035Z,100.00
2022-09-14T19:43:36.930Z,100.00
2022-09-14T19:46:05.575Z,100.00
2022-09-14T19:48:33.714Z,100.00
2022-09-14T19:51:02.765Z,100.00
2022-09-14T19:53:31.886Z,100.00
2022-09-14T19:55:59.549Z,100.00
2022-09-14T19:58:29.812Z,100.00
2022-09-14T20:00:58.506Z,100.00
2022-09-14T20:03:26.465Z,100.00
2022-09-14T20:06:00.621Z,100.00
2022-09-14T20:08:28.430Z,100.00
2022-09-14T20:10:56.006Z,100.00
2022-09-14T20:13:23.774Z,100.00
2022-09-14T20:15:53.075Z,100.00
2022-09-14T20:18:20.698Z,100.00
2022-09-14T20:20:48.226Z,100.00
2022-09-14T20:23:15.785Z,100.00
2022-09-14T20:25:43.470Z,100.00
2022-09-14T20:28:11.206Z,100.00
2022-09-14T20:30:39.157Z,100.00
2022-09-14T20:33:08.022Z,100.00
2022-09-14T20:35:35.587Z,100.00
2022-09-14T20:38:03.163Z,100.00
2022-09-14T20:40:30.711Z,100.00
2022-09-14T20:42:59.189Z,100.00
2022-09-14T20:45:26.737Z,100.00
2022-09-14T20:47:54.258Z,100.00
2022-09-14T20:50:23.459Z,100.00
2022-09-14T20:52:50.999Z,100.00
2022-09-14T20:55:18.537Z,100.00
2022-09-14T20:57:46.125Z,100.00
2022-09-14T21:00:14.578Z,100.00
2022-09-14T21:02:42.389Z,100.00
2022-09-14T21:05:10.260Z,100.00
2022-09-14T21:07:39.243Z,100.00
2022-09-14T21:10:08.066Z,100.00
2022-09-14T21:12:35.627Z,100.00
2022-09-14T21:15:03.166Z,100.00
2022-09-14T21:17:31.021Z,100.00
2022-09-14T21:19:58.541Z,100.00
2022-09-14T21:22:26.187Z,100.00
2022-09-14T21:24:55.049Z,100.00
2022-09-14T21:27:22.625Z,100.00
2022-09-14T21:29:50.838Z,100.00
2022-09-14T21:32:18.563Z,100.00
2022-09-14T21:34:46.097Z,100.00
2022-09-14T21:37:13.635Z,100.00
2022-09-14T21:39:41.715Z,100.00
2022-09-14T21:42:10.585Z,100.00
2022-09-14T21:44:38.728Z,100.00
2022-09-14T21:47:06.578Z,100.00
2022-09-14T21:49:34.410Z,100.00
2022-09-14T21:52:02.183Z,100.00
2022-09-14T21:54:30.073Z,100.00
2022-09-14T21:56:57.822Z,100.00
2022-09-14T21:59:26.723Z,100.00
2022-09-14T22:01:54.335Z,100.00
2022-09-14T22:04:26.092Z,100.00
2022-09-14T22:06:54.322Z,100.00
2022-09-14T22:09:23.934Z,100.00
2022-09-14T22:11:51.513Z,100.00
2022-09-14T22:14:20.857Z,100.00
2022-09-14T22:16:50.222Z,100.00
2022-09-14T22:19:20.007Z,100.00
2022-09-14T22:21:48.124Z,100.00
2022-09-14T22:24:18.292Z,100.00
2022-09-14T22:26:46.416Z,100.00
2022-09-14T22:29:15.099Z,100.00
2022-09-14T22:31:44.388Z,100.00
2022-09-14T22:34:14.443Z,100.00
2022-09-14T22:36:42.302Z,100.00
2022-09-14T22:39:10.666Z,100.00
2022-09-14T22:41:38.477Z,100.00
2022-09-14T22:44:06.627Z,100.00
2022-09-14T22:46:34.584Z,100.00
2022-09-14T22:49:02.124Z,100.00
2022-09-14T22:51:32.630Z,100.00
2022-09-14T22:54:00.162Z,100.00
2022-09-14T22:56:31.170Z,100.00
2022-09-14T22:58:59.846Z,100.00
2022-09-14T23:01:30.347Z,100.00
2022-09-14T23:04:00.146Z,100.00
2022-09-14T23:06:28.763Z,100.00
2022-09-14T23:08:57.926Z,100.00
2022-09-14T23:11:25.614Z,100.00
2022-09-14T23:13:53.913Z,100.00
2022-09-14T23:16:28.372Z,100.00
2022-09-14T23:18:57.539Z,100.00
2022-09-14T23:21:25.553Z,100.00
2022-09-14T23:23:53.822Z,100.00
2022-09-14T23:26:24.033Z,100.00
2022-09-14T23:28:52.671Z,100.00
2022-09-14T23:31:20.782Z,100.00
2022-09-14T23:33:51.077Z,100.00
2022-09-14T23:36:19.270Z,100.00
2022-09-14T23:38:47.992Z,100.00
2022-09-14T23:41:15.588Z,100.00
2022-09-14T23:43:44.746Z,100.00
2022-09-14T23:46:13.194Z,100.00
2022-09-14T23:48:40.926Z,100.00
2022-09-14T23:51:10.138Z,100.00
2022-09-14T23:53:38.594Z,100.00
2022-09-14T23:56:06.574Z,100.00
2022-09-14T23:58:34.428Z,100.00
